sensor_id;sensor_type;location;lat;lon;timestamp;temperature;humidity
8824;DHT22;4448;50.904;4.694;2022-12-07T00:01:12;5.60;99.90
8824;DHT22;4448;50.904;4.694;2022-12-07T00:03:39;5.60;99.90
8824;DHT22;4448;50.904;4.694;2022-12-07T00:06:07;5.50;99.90
8824;DHT22;4448;50.904;4.694;2022-12-07T00:08:34;5.60;99.90
8824;DHT22;4448;50.904;4.694;2022-12-07T00:11:11;5.60;99.90
8824;DHT22;4448;50.904;4.694;2022-12-07T00:13:38;5.60;99.90
8824;DHT22;4448;50.904;4.694;2022-12-07T00:16:07;5.60;99.90
8824;DHT22;4448;50.904;4.694;2022-12-07T00:18:33;5.60;99.90
8824;DHT22;4448;50.904;4.694;2022-12-07T00:21:01;5.50;99.90
8824;DHT22;4448;50.904;4.694;2022-12-07T00:23:27;5.50;99.90
8824;DHT22;4448;50.904;4.694;2022-12-07T00:25:53;5.50;99.90
8824;DHT22;4448;50.904;4.694;2022-12-07T00:28:18;5.50;99.90
8824;DHT22;4448;50.904;4.694;2022-12-07T00:30:44;5.40;99.90
8824;DHT22;4448;50.904;4.694;2022-12-07T00:33:10;5.30;99.90
8824;DHT22;4448;50.904;4.694;2022-12-07T00:35:35;5.20;99.90
8824;DHT22;4448;50.904;4.694;2022-12-07T00:38:01;5.20;99.90
8824;DHT22;4448;50.904;4.694;2022-12-07T00:40:26;5.10;99.90
8824;DHT22;4448;50.904;4.694;2022-12-07T00:42:52;5.20;99.90
8824;DHT22;4448;50.904;4.694;2022-12-07T00:45:18;5.00;99.90
8824;DHT22;4448;50.904;4.694;2022-12-07T00:47:43;4.90;99.90
8824;DHT22;4448;50.904;4.694;2022-12-07T00:50:09;4.90;99.90
8824;DHT22;4448;50.904;4.694;2022-12-07T00:52:35;4.90;99.90
8824;DHT22;4448;50.904;4.694;2022-12-07T00:55:00;4.90;99.90
8824;DHT22;4448;50.904;4.694;2022-12-07T00:57:26;4.80;99.90
8824;DHT22;4448;50.904;4.694;2022-12-07T00:59:52;5.10;99.90
8824;DHT22;4448;50.904;4.694;2022-12-07T01:02:21;5.00;99.90
8824;DHT22;4448;50.904;4.694;2022-12-07T01:04:47;4.80;99.90
8824;DHT22;4448;50.904;4.694;2022-12-07T01:07:12;4.80;99.90
8824;DHT22;4448;50.904;4.694;2022-12-07T01:09:38;4.80;99.90
8824;DHT22;4448;50.904;4.694;2022-12-07T01:12:04;4.70;99.90
8824;DHT22;4448;50.904;4.694;2022-12-07T01:14:30;4.80;99.90
8824;DHT22;4448;50.904;4.694;2022-12-07T01:16:55;4.80;99.90
8824;DHT22;4448;50.904;4.694;2022-12-07T01:19:21;4.80;99.90
8824;DHT22;4448;50.904;4.694;2022-12-07T01:21:47;4.60;99.90
8824;DHT22;4448;50.904;4.694;2022-12-07T01:24:12;4.70;99.90
8824;DHT22;4448;50.904;4.694;2022-12-07T01:26:38;4.60;99.90
8824;DHT22;4448;50.904;4.694;2022-12-07T01:29:04;4.60;99.90
8824;DHT22;4448;50.904;4.694;2022-12-07T01:31:30;4.90;99.90
8824;DHT22;4448;50.904;4.694;2022-12-07T01:33:57;4.80;99.90
8824;DHT22;4448;50.904;4.694;2022-12-07T01:36:34;4.50;99.90
8824;DHT22;4448;50.904;4.694;2022-12-07T01:39:03;4.50;99.90
8824;DHT22;4448;50.904;4.694;2022-12-07T01:41:33;4.60;99.90
8824;DHT22;4448;50.904;4.694;2022-12-07T01:44:13;4.60;99.90
8824;DHT22;4448;50.904;4.694;2022-12-07T01:46:40;4.60;99.90
8824;DHT22;4448;50.904;4.694;2022-12-07T01:49:10;4.60;99.90
8824;DHT22;4448;50.904;4.694;2022-12-07T01:51:39;4.60;99.90
8824;DHT22;4448;50.904;4.694;2022-12-07T01:54:07;4.90;99.90
8824;DHT22;4448;50.904;4.694;2022-12-07T01:56:33;4.70;99.90
8824;DHT22;4448;50.904;4.694;2022-12-07T01:59:00;4.70;99.90
8824;DHT22;4448;50.904;4.694;2022-12-07T02:01:26;4.70;99.90
8824;DHT22;4448;50.904;4.694;2022-12-07T02:03:52;4.70;99.90
8824;DHT22;4448;50.904;4.694;2022-12-07T02:06:21;4.80;99.90
8824;DHT22;4448;50.904;4.694;2022-12-07T02:08:48;4.90;99.90
8824;DHT22;4448;50.904;4.694;2022-12-07T02:11:14;4.80;99.90
8824;DHT22;4448;50.904;4.694;2022-12-07T02:13:42;4.90;99.90
8824;DHT22;4448;50.904;4.694;2022-12-07T02:37:36;5.00;99.90
8824;DHT22;4448;50.904;4.694;2022-12-07T02:40:16;4.90;99.90
8824;DHT22;4448;50.904;4.694;2022-12-07T02:42:47;4.90;99.90
8824;DHT22;4448;50.904;4.694;2022-12-07T02:45:18;4.90;99.90
8824;DHT22;4448;50.904;4.694;2022-12-07T02:47:45;4.90;99.90
8824;DHT22;4448;50.904;4.694;2022-12-07T02:50:12;4.90;99.90
8824;DHT22;4448;50.904;4.694;2022-12-07T02:52:38;4.90;99.90
8824;DHT22;4448;50.904;4.694;2022-12-07T02:55:04;5.20;99.90
8824;DHT22;4448;50.904;4.694;2022-12-07T03:00:39;4.90;99.90
8824;DHT22;4448;50.904;4.694;2022-12-07T03:03:12;5.00;99.90
8824;DHT22;4448;50.904;4.694;2022-12-07T03:09:08;4.90;99.90
8824;DHT22;4448;50.904;4.694;2022-12-07T03:16:55;5.00;99.90
8824;DHT22;4448;50.904;4.694;2022-12-07T03:19:24;4.80;99.90
8824;DHT22;4448;50.904;4.694;2022-12-07T03:21:55;4.90;99.90
8824;DHT22;4448;50.904;4.694;2022-12-07T03:24:31;4.90;99.90
8824;DHT22;4448;50.904;4.694;2022-12-07T03:27:09;4.90;99.90
8824;DHT22;4448;50.904;4.694;2022-12-07T03:29:42;5.10;99.90
8824;DHT22;4448;50.904;4.694;2022-12-07T03:32:25;4.90;99.90
8824;DHT22;4448;50.904;4.694;2022-12-07T03:35:27;4.90;99.90
8824;DHT22;4448;50.904;4.694;2022-12-07T03:37:54;4.80;99.90
8824;DHT22;4448;50.904;4.694;2022-12-07T03:40:54;4.90;99.90
8824;DHT22;4448;50.904;4.694;2022-12-07T03:43:22;4.90;99.90
8824;DHT22;4448;50.904;4.694;2022-12-07T03:48:37;4.90;99.90
8824;DHT22;4448;50.904;4.694;2022-12-07T03:51:08;4.90;99.90
8824;DHT22;4448;50.904;4.694;2022-12-07T03:53:39;4.90;99.90
8824;DHT22;4448;50.904;4.694;2022-12-07T03:56:09;5.20;99.90
8824;DHT22;4448;50.904;4.694;2022-12-07T03:58:36;5.00;99.90
8824;DHT22;4448;50.904;4.694;2022-12-07T04:01:02;5.00;99.90
8824;DHT22;4448;50.904;4.694;2022-12-07T04:03:28;5.00;99.90
8824;DHT22;4448;50.904;4.694;2022-12-07T04:05:54;4.90;99.90
8824;DHT22;4448;50.904;4.694;2022-12-07T04:08:19;5.00;99.90
8824;DHT22;4448;50.904;4.694;2022-12-07T04:10:45;4.90;99.90
8824;DHT22;4448;50.904;4.694;2022-12-07T04:13:11;4.80;99.90
8824;DHT22;4448;50.904;4.694;2022-12-07T04:15:36;4.80;99.90
8824;DHT22;4448;50.904;4.694;2022-12-07T04:18:02;4.70;99.90
8824;DHT22;4448;50.904;4.694;2022-12-07T04:20:28;4.60;99.90
8824;DHT22;4448;50.904;4.694;2022-12-07T04:22:53;4.60;99.90
8824;DHT22;4448;50.904;4.694;2022-12-07T04:25:19;4.60;99.90
8824;DHT22;4448;50.904;4.694;2022-12-07T04:27:45;4.40;99.90
8824;DHT22;4448;50.904;4.694;2022-12-07T04:30:11;4.40;99.90
8824;DHT22;4448;50.904;4.694;2022-12-07T04:32:36;4.30;99.90
8824;DHT22;4448;50.904;4.694;2022-12-07T04:35:03;4.30;99.90
8824;DHT22;4448;50.904;4.694;2022-12-07T04:37:29;4.20;99.90
8824;DHT22;4448;50.904;4.694;2022-12-07T04:39:54;4.20;99.90
8824;DHT22;4448;50.904;4.694;2022-12-07T04:42:20;4.10;99.90
8824;DHT22;4448;50.904;4.694;2022-12-07T04:44:46;4.00;99.90
8824;DHT22;4448;50.904;4.694;2022-12-07T04:47:11;4.00;99.90
8824;DHT22;4448;50.904;4.694;2022-12-07T04:49:37;4.00;99.90
8824;DHT22;4448;50.904;4.694;2022-12-07T04:52:03;4.00;99.90
8824;DHT22;4448;50.904;4.694;2022-12-07T04:54:28;4.00;99.90
8824;DHT22;4448;50.904;4.694;2022-12-07T04:56:54;4.00;99.90
8824;DHT22;4448;50.904;4.694;2022-12-07T04:59:20;4.10;99.90
8824;DHT22;4448;50.904;4.694;2022-12-07T05:01:45;4.30;99.90
8824;DHT22;4448;50.904;4.694;2022-12-07T05:04:11;4.50;99.90
8824;DHT22;4448;50.904;4.694;2022-12-07T05:06:37;3.80;99.90
8824;DHT22;4448;50.904;4.694;2022-12-07T05:09:03;3.80;99.90
8824;DHT22;4448;50.904;4.694;2022-12-07T05:11:29;3.80;99.90
8824;DHT22;4448;50.904;4.694;2022-12-07T05:16:31;3.70;99.90
8824;DHT22;4448;50.904;4.694;2022-12-07T05:18:57;3.60;99.90
8824;DHT22;4448;50.904;4.694;2022-12-07T05:21:23;3.60;99.90
8824;DHT22;4448;50.904;4.694;2022-12-07T05:23:49;3.60;99.90
8824;DHT22;4448;50.904;4.694;2022-12-07T05:26:15;3.70;99.90
8824;DHT22;4448;50.904;4.694;2022-12-07T05:28:40;3.80;99.90
8824;DHT22;4448;50.904;4.694;2022-12-07T05:31:06;3.80;99.90
8824;DHT22;4448;50.904;4.694;2022-12-07T05:33:32;3.90;99.90
8824;DHT22;4448;50.904;4.694;2022-12-07T05:35:58;3.90;99.90
8824;DHT22;4448;50.904;4.694;2022-12-07T05:38:23;4.00;99.90
8824;DHT22;4448;50.904;4.694;2022-12-07T05:40:50;4.00;99.90
8824;DHT22;4448;50.904;4.694;2022-12-07T05:43:16;4.10;99.90
8824;DHT22;4448;50.904;4.694;2022-12-07T05:45:42;4.10;99.90
8824;DHT22;4448;50.904;4.694;2022-12-07T05:48:07;4.20;99.90
8824;DHT22;4448;50.904;4.694;2022-12-07T05:50:33;4.20;99.90
8824;DHT22;4448;50.904;4.694;2022-12-07T05:52:58;4.20;99.90
8824;DHT22;4448;50.904;4.694;2022-12-07T05:55:24;4.20;99.90
8824;DHT22;4448;50.904;4.694;2022-12-07T05:57:50;4.20;99.90
8824;DHT22;4448;50.904;4.694;2022-12-07T06:00:34;4.20;99.90
8824;DHT22;4448;50.904;4.694;2022-12-07T06:03:00;4.30;99.90
8824;DHT22;4448;50.904;4.694;2022-12-07T06:05:26;4.30;99.90
8824;DHT22;4448;50.904;4.694;2022-12-07T06:07:51;4.60;99.90
8824;DHT22;4448;50.904;4.694;2022-12-07T06:10:17;4.40;99.90
8824;DHT22;4448;50.904;4.694;2022-12-07T06:12:42;4.90;99.90
8824;DHT22;4448;50.904;4.694;2022-12-07T06:15:11;4.40;99.90
8824;DHT22;4448;50.904;4.694;2022-12-07T06:17:38;4.40;99.90
8824;DHT22;4448;50.904;4.694;2022-12-07T06:20:05;4.40;99.90
8824;DHT22;4448;50.904;4.694;2022-12-07T06:22:30;4.40;99.90
8824;DHT22;4448;50.904;4.694;2022-12-07T06:24:56;4.50;99.90
8824;DHT22;4448;50.904;4.694;2022-12-07T06:27:22;4.50;99.90
8824;DHT22;4448;50.904;4.694;2022-12-07T06:29:47;4.70;99.90
8824;DHT22;4448;50.904;4.694;2022-12-07T06:32:13;4.50;99.90
8824;DHT22;4448;50.904;4.694;2022-12-07T06:34:38;4.60;99.90
8824;DHT22;4448;50.904;4.694;2022-12-07T06:37:04;4.40;99.90
8824;DHT22;4448;50.904;4.694;2022-12-07T06:39:30;4.50;99.90
8824;DHT22;4448;50.904;4.694;2022-12-07T06:41:57;4.50;99.90
8824;DHT22;4448;50.904;4.694;2022-12-07T06:44:23;4.40;99.90
8824;DHT22;4448;50.904;4.694;2022-12-07T06:46:49;4.50;99.90
8824;DHT22;4448;50.904;4.694;2022-12-07T06:49:16;4.40;99.90
8824;DHT22;4448;50.904;4.694;2022-12-07T06:51:41;4.40;99.90
8824;DHT22;4448;50.904;4.694;2022-12-07T06:54:09;4.60;99.90
8824;DHT22;4448;50.904;4.694;2022-12-07T06:56:35;4.40;99.90
8824;DHT22;4448;50.904;4.694;2022-12-07T06:59:00;4.40;99.90
8824;DHT22;4448;50.904;4.694;2022-12-07T07:01:26;4.40;99.90
8824;DHT22;4448;50.904;4.694;2022-12-07T07:03:52;4.40;99.90
8824;DHT22;4448;50.904;4.694;2022-12-07T07:06:18;4.30;99.90
8824;DHT22;4448;50.904;4.694;2022-12-07T07:08:43;4.40;99.90
8824;DHT22;4448;50.904;4.694;2022-12-07T07:11:10;4.30;99.90
8824;DHT22;4448;50.904;4.694;2022-12-07T07:13:36;4.40;99.90
8824;DHT22;4448;50.904;4.694;2022-12-07T07:16:02;4.40;99.90
8824;DHT22;4448;50.904;4.694;2022-12-07T07:18:28;4.40;99.90
8824;DHT22;4448;50.904;4.694;2022-12-07T07:20:54;4.40;99.90
8824;DHT22;4448;50.904;4.694;2022-12-07T07:23:21;4.50;99.90
8824;DHT22;4448;50.904;4.694;2022-12-07T07:25:47;4.80;99.90
8824;DHT22;4448;50.904;4.694;2022-12-07T07:28:13;4.40;99.90
8824;DHT22;4448;50.904;4.694;2022-12-07T07:30:39;4.50;99.90
8824;DHT22;4448;50.904;4.694;2022-12-07T07:33:05;4.60;99.90
8824;DHT22;4448;50.904;4.694;2022-12-07T07:35:32;4.60;99.90
8824;DHT22;4448;50.904;4.694;2022-12-07T07:37:59;4.60;99.90
8824;DHT22;4448;50.904;4.694;2022-12-07T07:40:26;4.60;99.90
8824;DHT22;4448;50.904;4.694;2022-12-07T07:42:53;4.50;99.90
8824;DHT22;4448;50.904;4.694;2022-12-07T07:45:20;4.60;99.90
8824;DHT22;4448;50.904;4.694;2022-12-07T07:47:46;4.60;99.90
8824;DHT22;4448;50.904;4.694;2022-12-07T07:50:12;4.60;99.90
8824;DHT22;4448;50.904;4.694;2022-12-07T07:52:39;4.70;99.90
8824;DHT22;4448;50.904;4.694;2022-12-07T07:55:05;4.70;99.90
8824;DHT22;4448;50.904;4.694;2022-12-07T07:57:31;4.60;99.90
8824;DHT22;4448;50.904;4.694;2022-12-07T07:59:56;4.40;99.90
8824;DHT22;4448;50.904;4.694;2022-12-07T08:02:22;4.60;99.90
8824;DHT22;4448;50.904;4.694;2022-12-07T08:04:48;4.60;99.90
8824;DHT22;4448;50.904;4.694;2022-12-07T08:07:14;4.60;99.90
8824;DHT22;4448;50.904;4.694;2022-12-07T08:09:40;4.50;99.90
8824;DHT22;4448;50.904;4.694;2022-12-07T08:12:06;4.70;99.90
8824;DHT22;4448;50.904;4.694;2022-12-07T08:14:33;4.80;99.90
8824;DHT22;4448;50.904;4.694;2022-12-07T08:16:59;4.80;99.90
8824;DHT22;4448;50.904;4.694;2022-12-07T08:19:25;4.80;99.90
8824;DHT22;4448;50.904;4.694;2022-12-07T08:21:51;4.70;99.90
8824;DHT22;4448;50.904;4.694;2022-12-07T08:24:17;4.60;99.90
8824;DHT22;4448;50.904;4.694;2022-12-07T08:26:43;4.70;99.90
8824;DHT22;4448;50.904;4.694;2022-12-07T08:29:08;4.60;99.90
8824;DHT22;4448;50.904;4.694;2022-12-07T08:31:34;5.10;99.90
8824;DHT22;4448;50.904;4.694;2022-12-07T08:34:00;5.80;99.90
8824;DHT22;4448;50.904;4.694;2022-12-07T08:36:26;6.50;99.90
8824;DHT22;4448;50.904;4.694;2022-12-07T08:38:52;7.10;99.90
8824;DHT22;4448;50.904;4.694;2022-12-07T08:41:18;7.70;99.90
8824;DHT22;4448;50.904;4.694;2022-12-07T08:43:44;8.10;99.90
8824;DHT22;4448;50.904;4.694;2022-12-07T08:46:25;8.50;99.90
8824;DHT22;4448;50.904;4.694;2022-12-07T08:49:10;8.70;99.90
8824;DHT22;4448;50.904;4.694;2022-12-07T08:51:38;9.00;99.90
8824;DHT22;4448;50.904;4.694;2022-12-07T08:54:06;9.10;99.90
8824;DHT22;4448;50.904;4.694;2022-12-07T08:56:33;9.30;99.90
8824;DHT22;4448;50.904;4.694;2022-12-07T08:58:59;9.10;99.90
8824;DHT22;4448;50.904;4.694;2022-12-07T09:01:25;8.80;99.90
8824;DHT22;4448;50.904;4.694;2022-12-07T09:03:51;8.30;99.90
8824;DHT22;4448;50.904;4.694;2022-12-07T09:06:16;7.90;99.90
8824;DHT22;4448;50.904;4.694;2022-12-07T09:08:46;7.50;99.90
8824;DHT22;4448;50.904;4.694;2022-12-07T09:11:12;7.20;99.90
8824;DHT22;4448;50.904;4.694;2022-12-07T09:13:38;7.00;99.90
8824;DHT22;4448;50.904;4.694;2022-12-07T09:16:04;6.70;99.90
8824;DHT22;4448;50.904;4.694;2022-12-07T09:18:30;6.60;99.90
8824;DHT22;4448;50.904;4.694;2022-12-07T09:20:56;6.50;99.90
8824;DHT22;4448;50.904;4.694;2022-12-07T09:23:22;6.40;99.90
8824;DHT22;4448;50.904;4.694;2022-12-07T09:25:47;6.30;99.90
8824;DHT22;4448;50.904;4.694;2022-12-07T09:28:13;6.30;99.90
8824;DHT22;4448;50.904;4.694;2022-12-07T09:30:39;6.20;99.90
8824;DHT22;4448;50.904;4.694;2022-12-07T09:33:10;6.20;99.90
8824;DHT22;4448;50.904;4.694;2022-12-07T09:35:36;6.10;99.90
8824;DHT22;4448;50.904;4.694;2022-12-07T09:38:01;6.10;99.90
8824;DHT22;4448;50.904;4.694;2022-12-07T09:40:28;6.10;99.90
8824;DHT22;4448;50.904;4.694;2022-12-07T09:42:54;6.10;99.90
8824;DHT22;4448;50.904;4.694;2022-12-07T09:45:33;6.20;99.90
8824;DHT22;4448;50.904;4.694;2022-12-07T09:48:00;6.40;99.90
8824;DHT22;4448;50.904;4.694;2022-12-07T09:50:28;6.50;99.90
8824;DHT22;4448;50.904;4.694;2022-12-07T09:53:01;6.60;99.90
8824;DHT22;4448;50.904;4.694;2022-12-07T09:55:30;6.90;99.90
8824;DHT22;4448;50.904;4.694;2022-12-07T09:57:57;6.60;99.90
8824;DHT22;4448;50.904;4.694;2022-12-07T10:00:23;6.60;99.90
8824;DHT22;4448;50.904;4.694;2022-12-07T10:02:57;6.50;99.90
8824;DHT22;4448;50.904;4.694;2022-12-07T10:05:40;6.50;99.90
8824;DHT22;4448;50.904;4.694;2022-12-07T10:08:11;6.60;99.90
8824;DHT22;4448;50.904;4.694;2022-12-07T10:10:36;6.70;99.90
8824;DHT22;4448;50.904;4.694;2022-12-07T10:13:15;6.80;99.90
8824;DHT22;4448;50.904;4.694;2022-12-07T10:18:41;6.90;99.90
8824;DHT22;4448;50.904;4.694;2022-12-07T10:31:39;7.30;99.90
8824;DHT22;4448;50.904;4.694;2022-12-07T10:34:25;7.40;99.90
8824;DHT22;4448;50.904;4.694;2022-12-07T10:36:53;7.40;99.90
8824;DHT22;4448;50.904;4.694;2022-12-07T10:39:21;7.40;99.90
8824;DHT22;4448;50.904;4.694;2022-12-07T10:41:55;7.50;99.90
8824;DHT22;4448;50.904;4.694;2022-12-07T10:44:27;7.50;99.90
8824;DHT22;4448;50.904;4.694;2022-12-07T10:55:20;7.70;99.90
8824;DHT22;4448;50.904;4.694;2022-12-07T10:58:07;7.70;99.90
8824;DHT22;4448;50.904;4.694;2022-12-07T11:00:45;7.60;99.90
8824;DHT22;4448;50.904;4.694;2022-12-07T11:06:14;7.40;99.90
8824;DHT22;4448;50.904;4.694;2022-12-07T11:11:38;7.40;99.90
8824;DHT22;4448;50.904;4.694;2022-12-07T11:14:19;7.80;99.90
8824;DHT22;4448;50.904;4.694;2022-12-07T11:17:01;7.40;99.90
8824;DHT22;4448;50.904;4.694;2022-12-07T11:19:52;7.30;99.90
8824;DHT22;4448;50.904;4.694;2022-12-07T11:29:14;7.20;99.90
8824;DHT22;4448;50.904;4.694;2022-12-07T11:36:53;7.60;99.90
8824;DHT22;4448;50.904;4.694;2022-12-07T11:42:11;7.80;99.90
8824;DHT22;4448;50.904;4.694;2022-12-07T11:45:10;7.70;99.90
8824;DHT22;4448;50.904;4.694;2022-12-07T11:47:47;7.60;99.90
8824;DHT22;4448;50.904;4.694;2022-12-07T11:50:31;7.70;99.90
8824;DHT22;4448;50.904;4.694;2022-12-07T11:53:03;7.60;99.90
8824;DHT22;4448;50.904;4.694;2022-12-07T12:03:45;7.60;99.90
8824;DHT22;4448;50.904;4.694;2022-12-07T12:06:12;7.80;99.90
8824;DHT22;4448;50.904;4.694;2022-12-07T12:08:46;8.10;99.90
8824;DHT22;4448;50.904;4.694;2022-12-07T12:14:05;8.10;99.90
8824;DHT22;4448;50.904;4.694;2022-12-07T12:19:42;8.20;99.90
8824;DHT22;4448;50.904;4.694;2022-12-07T12:22:18;8.10;99.90
8824;DHT22;4448;50.904;4.694;2022-12-07T12:24:50;8.10;99.90
8824;DHT22;4448;50.904;4.694;2022-12-07T12:27:34;8.00;99.90
8824;DHT22;4448;50.904;4.694;2022-12-07T12:30:03;8.00;99.90
8824;DHT22;4448;50.904;4.694;2022-12-07T12:32:38;8.00;99.90
8824;DHT22;4448;50.904;4.694;2022-12-07T12:37:52;8.00;99.90
8824;DHT22;4448;50.904;4.694;2022-12-07T12:42:51;8.00;99.90
8824;DHT22;4448;50.904;4.694;2022-12-07T12:45:24;7.90;99.90
8824;DHT22;4448;50.904;4.694;2022-12-07T12:48:03;7.90;99.90
8824;DHT22;4448;50.904;4.694;2022-12-07T12:50:36;7.80;99.90
8824;DHT22;4448;50.904;4.694;2022-12-07T12:53:23;7.90;99.90
8824;DHT22;4448;50.904;4.694;2022-12-07T12:58:38;8.30;99.90
8824;DHT22;4448;50.904;4.694;2022-12-07T13:04:01;8.40;99.90
8824;DHT22;4448;50.904;4.694;2022-12-07T13:08:57;8.50;99.90
8824;DHT22;4448;50.904;4.694;2022-12-07T13:11:38;8.60;99.90
8824;DHT22;4448;50.904;4.694;2022-12-07T13:14:41;8.70;99.90
8824;DHT22;4448;50.904;4.694;2022-12-07T13:17:12;8.90;99.90
8824;DHT22;4448;50.904;4.694;2022-12-07T13:20:07;9.10;99.90
8824;DHT22;4448;50.904;4.694;2022-12-07T13:25:30;9.20;99.90
8824;DHT22;4448;50.904;4.694;2022-12-07T13:28:02;9.20;99.90
8824;DHT22;4448;50.904;4.694;2022-12-07T13:30:33;9.30;99.90
8824;DHT22;4448;50.904;4.694;2022-12-07T13:33:09;9.30;99.90
8824;DHT22;4448;50.904;4.694;2022-12-07T13:35:36;9.40;99.90
8824;DHT22;4448;50.904;4.694;2022-12-07T13:41:03;9.30;99.90
8824;DHT22;4448;50.904;4.694;2022-12-07T13:43:29;9.00;99.90
8824;DHT22;4448;50.904;4.694;2022-12-07T13:45:58;8.70;99.90
8824;DHT22;4448;50.904;4.694;2022-12-07T13:51:21;8.30;99.90
8824;DHT22;4448;50.904;4.694;2022-12-07T13:53:50;8.20;99.90
8824;DHT22;4448;50.904;4.694;2022-12-07T13:56:16;8.10;99.90
8824;DHT22;4448;50.904;4.694;2022-12-07T13:58:42;8.10;99.90
8824;DHT22;4448;50.904;4.694;2022-12-07T14:01:08;8.10;99.90
8824;DHT22;4448;50.904;4.694;2022-12-07T14:03:35;8.10;99.90
8824;DHT22;4448;50.904;4.694;2022-12-07T14:06:11;8.20;99.90
8824;DHT22;4448;50.904;4.694;2022-12-07T14:08:38;8.10;99.90
8824;DHT22;4448;50.904;4.694;2022-12-07T14:11:04;8.00;99.90
8824;DHT22;4448;50.904;4.694;2022-12-07T14:13:56;8.00;99.90
8824;DHT22;4448;50.904;4.694;2022-12-07T14:16:31;8.00;99.90
8824;DHT22;4448;50.904;4.694;2022-12-07T14:18:58;7.90;99.90
8824;DHT22;4448;50.904;4.694;2022-12-07T14:21:29;8.00;99.90
8824;DHT22;4448;50.904;4.694;2022-12-07T14:24:18;8.00;99.90
8824;DHT22;4448;50.904;4.694;2022-12-07T14:26:49;7.90;99.90
8824;DHT22;4448;50.904;4.694;2022-12-07T14:31:52;7.80;99.90
8824;DHT22;4448;50.904;4.694;2022-12-07T14:34:22;7.70;99.90
8824;DHT22;4448;50.904;4.694;2022-12-07T14:36:48;7.60;99.90
8824;DHT22;4448;50.904;4.694;2022-12-07T14:39:14;7.50;99.90
8824;DHT22;4448;50.904;4.694;2022-12-07T14:41:39;7.40;99.90
8824;DHT22;4448;50.904;4.694;2022-12-07T14:44:21;7.30;99.90
8824;DHT22;4448;50.904;4.694;2022-12-07T14:46:48;7.10;99.90
8824;DHT22;4448;50.904;4.694;2022-12-07T14:49:14;6.90;99.90
8824;DHT22;4448;50.904;4.694;2022-12-07T14:51:40;6.90;99.90
8824;DHT22;4448;50.904;4.694;2022-12-07T14:54:18;6.80;99.90
8824;DHT22;4448;50.904;4.694;2022-12-07T14:56:45;6.70;99.90
8824;DHT22;4448;50.904;4.694;2022-12-07T14:59:14;6.70;99.90
8824;DHT22;4448;50.904;4.694;2022-12-07T15:01:40;6.70;99.90
8824;DHT22;4448;50.904;4.694;2022-12-07T15:04:06;6.70;99.90
8824;DHT22;4448;50.904;4.694;2022-12-07T15:06:32;6.60;99.90
8824;DHT22;4448;50.904;4.694;2022-12-07T15:08:58;6.70;99.90
8824;DHT22;4448;50.904;4.694;2022-12-07T15:11:24;6.70;99.90
8824;DHT22;4448;50.904;4.694;2022-12-07T15:13:49;6.60;99.90
8824;DHT22;4448;50.904;4.694;2022-12-07T15:16:35;6.60;99.90
8824;DHT22;4448;50.904;4.694;2022-12-07T15:19:01;6.60;99.90
8824;DHT22;4448;50.904;4.694;2022-12-07T15:21:27;6.50;99.90
8824;DHT22;4448;50.904;4.694;2022-12-07T15:23:53;6.40;99.90
8824;DHT22;4448;50.904;4.694;2022-12-07T15:26:19;6.30;99.90
8824;DHT22;4448;50.904;4.694;2022-12-07T15:28:45;6.30;99.90
8824;DHT22;4448;50.904;4.694;2022-12-07T15:31:16;6.20;99.90
8824;DHT22;4448;50.904;4.694;2022-12-07T15:33:42;6.10;99.90
8824;DHT22;4448;50.904;4.694;2022-12-07T15:36:19;6.00;99.90
8824;DHT22;4448;50.904;4.694;2022-12-07T15:38:46;5.90;99.90
8824;DHT22;4448;50.904;4.694;2022-12-07T15:41:11;5.90;99.90
8824;DHT22;4448;50.904;4.694;2022-12-07T15:43:37;5.90;99.90
8824;DHT22;4448;50.904;4.694;2022-12-07T15:46:21;6.00;99.90
8824;DHT22;4448;50.904;4.694;2022-12-07T15:48:47;5.90;99.90
8824;DHT22;4448;50.904;4.694;2022-12-07T15:51:12;5.90;99.90
8824;DHT22;4448;50.904;4.694;2022-12-07T15:53:38;5.90;99.90
8824;DHT22;4448;50.904;4.694;2022-12-07T15:56:08;5.90;99.90
8824;DHT22;4448;50.904;4.694;2022-12-07T15:58:34;5.90;99.90
8824;DHT22;4448;50.904;4.694;2022-12-07T16:01:00;6.00;99.90
8824;DHT22;4448;50.904;4.694;2022-12-07T16:03:27;5.90;99.90
8824;DHT22;4448;50.904;4.694;2022-12-07T16:05:53;5.90;99.90
8824;DHT22;4448;50.904;4.694;2022-12-07T16:08:19;5.90;99.90
8824;DHT22;4448;50.904;4.694;2022-12-07T16:10:45;5.80;99.90
8824;DHT22;4448;50.904;4.694;2022-12-07T16:13:11;5.90;99.90
8824;DHT22;4448;50.904;4.694;2022-12-07T16:15:42;6.00;99.90
8824;DHT22;4448;50.904;4.694;2022-12-07T16:18:08;6.00;99.90
8824;DHT22;4448;50.904;4.694;2022-12-07T16:20:34;6.00;99.90
8824;DHT22;4448;50.904;4.694;2022-12-07T16:23:00;6.10;99.90
8824;DHT22;4448;50.904;4.694;2022-12-07T16:25:25;5.90;99.90
8824;DHT22;4448;50.904;4.694;2022-12-07T16:27:52;5.90;99.90
8824;DHT22;4448;50.904;4.694;2022-12-07T16:30:18;6.00;99.90
8824;DHT22;4448;50.904;4.694;2022-12-07T16:32:43;5.90;99.90
8824;DHT22;4448;50.904;4.694;2022-12-07T16:35:10;5.90;99.90
8824;DHT22;4448;50.904;4.694;2022-12-07T16:37:35;5.90;99.90
8824;DHT22;4448;50.904;4.694;2022-12-07T16:40:02;5.90;99.90
8824;DHT22;4448;50.904;4.694;2022-12-07T16:42:32;5.90;99.90
8824;DHT22;4448;50.904;4.694;2022-12-07T16:44:58;5.90;99.90
8824;DHT22;4448;50.904;4.694;2022-12-07T16:47:23;5.90;99.90
8824;DHT22;4448;50.904;4.694;2022-12-07T16:49:49;5.80;99.90
8824;DHT22;4448;50.904;4.694;2022-12-07T16:52:15;5.80;99.90
8824;DHT22;4448;50.904;4.694;2022-12-07T16:54:41;5.90;99.90
8824;DHT22;4448;50.904;4.694;2022-12-07T16:57:06;5.90;99.90
8824;DHT22;4448;50.904;4.694;2022-12-07T16:59:32;5.90;99.90
8824;DHT22;4448;50.904;4.694;2022-12-07T17:01:58;5.90;99.90
8824;DHT22;4448;50.904;4.694;2022-12-07T17:04:23;5.90;99.90
8824;DHT22;4448;50.904;4.694;2022-12-07T17:06:49;5.90;99.90
8824;DHT22;4448;50.904;4.694;2022-12-07T17:09:15;5.90;99.90
8824;DHT22;4448;50.904;4.694;2022-12-07T17:11:43;5.90;99.90
8824;DHT22;4448;50.904;4.694;2022-12-07T17:14:09;5.90;99.90
8824;DHT22;4448;50.904;4.694;2022-12-07T17:16:54;5.90;99.90
8824;DHT22;4448;50.904;4.694;2022-12-07T17:19:20;6.00;99.90
8824;DHT22;4448;50.904;4.694;2022-12-07T17:21:46;5.90;99.90
8824;DHT22;4448;50.904;4.694;2022-12-07T17:24:14;5.90;99.90
8824;DHT22;4448;50.904;4.694;2022-12-07T17:26:42;5.90;99.90
8824;DHT22;4448;50.904;4.694;2022-12-07T17:29:10;5.90;99.90
8824;DHT22;4448;50.904;4.694;2022-12-07T17:31:37;6.00;99.90
8824;DHT22;4448;50.904;4.694;2022-12-07T17:34:03;5.90;99.90
8824;DHT22;4448;50.904;4.694;2022-12-07T17:36:31;6.10;99.90
8824;DHT22;4448;50.904;4.694;2022-12-07T17:38:57;5.90;99.90
8824;DHT22;4448;50.904;4.694;2022-12-07T17:41:25;5.90;99.90
8824;DHT22;4448;50.904;4.694;2022-12-07T17:44:12;5.90;99.90
8824;DHT22;4448;50.904;4.694;2022-12-07T17:46:38;5.90;99.90
8824;DHT22;4448;50.904;4.694;2022-12-07T17:49:05;5.80;99.90
8824;DHT22;4448;50.904;4.694;2022-12-07T17:51:31;5.90;99.90
8824;DHT22;4448;50.904;4.694;2022-12-07T17:54:16;5.80;99.90
8824;DHT22;4448;50.904;4.694;2022-12-07T17:56:41;5.80;99.90
8824;DHT22;4448;50.904;4.694;2022-12-07T17:59:07;5.80;99.90
8824;DHT22;4448;50.904;4.694;2022-12-07T18:01:34;6.00;99.90
8824;DHT22;4448;50.904;4.694;2022-12-07T18:04:00;5.90;99.90
8824;DHT22;4448;50.904;4.694;2022-12-07T18:06:26;5.70;99.90
8824;DHT22;4448;50.904;4.694;2022-12-07T18:08:52;5.70;99.90
8824;DHT22;4448;50.904;4.694;2022-12-07T18:11:17;5.80;99.90
8824;DHT22;4448;50.904;4.694;2022-12-07T18:13:43;5.70;99.90
8824;DHT22;4448;50.904;4.694;2022-12-07T18:16:13;5.70;99.90
8824;DHT22;4448;50.904;4.694;2022-12-07T18:18:40;5.60;99.90
8824;DHT22;4448;50.904;4.694;2022-12-07T18:21:14;5.60;99.90
8824;DHT22;4448;50.904;4.694;2022-12-07T18:23:46;5.60;99.90
8824;DHT22;4448;50.904;4.694;2022-12-07T18:26:13;5.60;99.90